createdAt,value
2023-04-02T00:00:36.356Z,100.00
2023-04-02T00:06:02.011Z,100.00
2023-04-02T00:11:06.326Z,100.00
2023-04-02T00:16:13.807Z,100.00
2023-04-02T00:21:22.036Z,100.00
2023-04-02T00:26:43.684Z,100.00
2023-04-02T00:31:59.664Z,100.00
2023-04-02T00:37:03.971Z,100.00
2023-04-02T00:42:07.802Z,100.00
2023-04-02T00:47:25.596Z,100.00
2023-04-02T00:52:31.440Z,100.00
2023-04-02T00:57:35.343Z,100.00
2023-04-02T01:02:41.279Z,100.00
2023-04-02T01:08:08.282Z,100.00
2023-04-02T01:13:17.962Z,100.00
2023-04-02T01:18:57.298Z,100.00
2023-04-02T01:24:06.761Z,100.00
2023-04-02T01:29:19.573Z,100.00
2023-04-02T01:34:26.669Z,100.00
2023-04-02T01:40:08.788Z,100.00
2023-04-02T01:45:17.157Z,100.00
2023-04-02T01:50:34.188Z,100.00
2023-04-02T01:55:47.608Z,100.00
2023-04-02T02:00:57.222Z,100.00
2023-04-02T02:06:03.542Z,100.00
2023-04-02T02:11:09.294Z,100.00
2023-04-02T02:16:18.355Z,100.00
2023-04-02T02:22:11.579Z,100.00
2023-04-02T02:27:24.091Z,100.00
2023-04-02T02:32:33.604Z,100.00
2023-04-02T02:37:41.238Z,100.00
2023-04-02T02:42:52.090Z,100.00
2023-04-02T02:47:56.685Z,100.00
2023-04-02T02:53:04.738Z,100.00
2023-04-02T02:58:31.795Z,100.00
2023-04-02T03:03:53.941Z,100.00
2023-04-02T03:09:17.900Z,100.00
2023-04-02T03:14:44.894Z,100.00
2023-04-02T03:20:33.598Z,100.00
2023-04-02T03:25:44.691Z,100.00
2023-04-02T03:30:51.429Z,100.00
2023-04-02T03:36:03.358Z,100.00
2023-04-02T03:41:13.831Z,100.00
2023-04-02T03:46:24.918Z,100.00
2023-04-02T03:51:49.844Z,100.00
2023-04-02T03:56:54.832Z,100.00
2023-04-02T04:02:39.962Z,100.00
2023-04-02T04:07:44.314Z,100.00
2023-04-02T04:12:49.411Z,100.00
2023-04-02T04:18:14.210Z,100.00
2023-04-02T04:23:37.269Z,100.00
2023-04-02T04:28:49.914Z,100.00
2023-04-02T04:34:03.545Z,100.00
2023-04-02T04:39:31.570Z,100.00
2023-04-02T04:44:52.382Z,100.00
2023-04-02T04:50:06.100Z,100.00
2023-04-02T04:55:37.962Z,100.00
2023-04-02T05:00:45.153Z,100.00
2023-04-02T05:05:49.622Z,100.00
2023-04-02T05:10:57.955Z,100.00
2023-04-02T05:16:41.131Z,100.00
2023-04-02T05:22:31.043Z,100.00
2023-04-02T05:27:38.291Z,100.00
2023-04-02T05:32:48.288Z,100.00
2023-04-02T05:37:52.624Z,100.00
2023-04-02T05:42:58.174Z,100.00
2023-04-02T05:48:06.299Z,100.00
2023-04-02T05:53:47.307Z,100.00
2023-04-02T05:58:56.815Z,100.00
2023-04-02T06:04:26.563Z,100.00
2023-04-02T06:09:56.205Z,100.00
2023-04-02T06:15:00.736Z,100.00
2023-04-02T06:20:07.484Z,100.00
2023-04-02T06:25:33.777Z,100.00
2023-04-02T06:30:40.057Z,100.00
2023-04-02T06:35:47.413Z,100.00
2023-04-02T06:41:13.634Z,100.00
2023-04-02T06:46:33.096Z,100.00
2023-04-02T06:51:44.880Z,100.00
2023-04-02T06:56:53.980Z,100.00
2023-04-02T07:02:13.061Z,100.00
2023-04-02T07:07:18.342Z,100.00
2023-04-02T07:12:25.729Z,100.00
2023-04-02T07:17:30.777Z,100.00
2023-04-02T07:22:34.960Z,100.00
2023-04-02T07:27:39.959Z,100.00
2023-04-02T07:32:43.773Z,100.00
2023-04-02T07:37:47.546Z,100.00
2023-04-02T07:42:51.317Z,100.00
2023-04-02T07:47:55.243Z,100.00
2023-04-02T07:52:59.080Z,100.00
2023-04-02T07:58:03.460Z,100.00
2023-04-02T08:03:07.518Z,100.00
2023-04-02T08:08:11.522Z,100.00
2023-04-02T08:13:16.649Z,100.00
2023-04-02T08:18:24.082Z,100.00
2023-04-02T08:23:28.404Z,100.00
2023-04-02T08:28:32.293Z,100.00
2023-04-02T08:33:36.225Z,100.00
2023-04-02T08:38:40.675Z,100.00
2023-04-02T08:44:07.481Z,100.00
2023-04-02T08:49:29.930Z,100.00
2023-04-02T08:54:47.273Z,99.92
2023-04-02T09:00:01.719Z,100.00
2023-04-02T09:05:08.321Z,99.94
2023-04-02T09:10:19.915Z,99.89
2023-04-02T09:15:31.456Z,99.90
2023-04-02T09:20:35.091Z,100.00
2023-04-02T09:25:51.206Z,99.99
2023-04-02T09:31:16.470Z,99.88
2023-04-02T09:36:38.688Z,99.71
2023-04-02T09:41:43.782Z,99.68
2023-04-02T09:47:00.734Z,99.92
2023-04-02T09:52:30.368Z,100.00
2023-04-02T09:57:34.262Z,100.00
2023-04-02T10:02:38.442Z,99.40
2023-04-02T10:07:48.978Z,99.80
2023-04-02T10:12:59.453Z,98.28
2023-04-02T10:18:13.007Z,99.47
2023-04-02T10:23:18.118Z,98.58
2023-04-02T10:28:43.636Z,98.58
2023-04-02T10:33:51.607Z,98.67
2023-04-02T10:39:12.439Z,99.90
2023-04-02T10:44:30.415Z,98.53
2023-04-02T10:49:50.450Z,98.02
2023-04-02T10:55:04.876Z,97.69
2023-04-02T11:35:06.673Z,96.29
2023-04-02T11:40:17.280Z,96.48
2023-04-02T11:46:08.744Z,94.33
2023-04-02T11:58:06.150Z,94.20
2023-04-02T12:10:23.040Z,94.65
2023-04-02T12:16:01.638Z,95.30
2023-04-02T12:21:18.772Z,94.55
2023-04-02T12:26:49.980Z,95.27
2023-04-02T12:32:04.495Z,95.16
2023-04-02T12:37:32.394Z,95.11
2023-04-02T12:42:46.865Z,95.94
2023-04-02T12:48:01.521Z,94.73
2023-04-02T12:53:29.745Z,95.07
2023-04-02T12:58:46.578Z,94.93
2023-04-02T13:04:10.947Z,94.99
2023-04-02T13:09:40.327Z,93.35
2023-04-02T13:14:46.861Z,94.54
2023-04-02T13:19:57.576Z,93.27
2023-04-02T13:25:03.219Z,93.64
2023-04-02T13:30:20.636Z,93.40
2023-04-02T13:35:29.677Z,93.17
2023-04-02T13:40:35.164Z,94.48
2023-04-02T13:45:45.828Z,93.37
2023-04-02T13:51:07.130Z,92.98
2023-04-02T13:56:31.305Z,93.71
2023-04-02T14:01:40.005Z,93.92
2023-04-02T14:07:13.078Z,93.57
2023-04-02T14:12:37.781Z,94.06
2023-04-02T14:18:07.757Z,93.41
2023-04-02T14:23:48.027Z,93.96
2023-04-02T14:29:13.668Z,93.29
2023-04-02T14:34:41.312Z,93.19
2023-04-02T14:40:04.671Z,94.18
2023-04-02T14:45:31.261Z,93.30
2023-04-02T14:50:40.858Z,92.52
2023-04-02T14:55:48.242Z,93.26
2023-04-02T15:01:39.547Z,92.95
2023-04-02T15:06:50.698Z,93.25
2023-04-02T15:11:58.872Z,93.18
2023-04-02T15:17:04.606Z,92.31
2023-04-02T15:22:24.509Z,91.83
2023-04-02T15:27:45.783Z,91.40
2023-04-02T15:32:57.188Z,91.89
2023-04-02T15:38:21.215Z,91.64
2023-04-02T15:43:32.721Z,92.13
2023-04-02T15:48:45.780Z,91.71
2023-04-02T15:54:00.831Z,90.57
2023-04-02T15:59:38.393Z,90.71
2023-04-02T16:05:05.318Z,90.50
2023-04-02T16:10:41.284Z,90.98
2023-04-02T16:15:57.664Z,90.36
2023-04-02T16:21:10.195Z,90.20
2023-04-02T16:26:22.957Z,90.72
2023-04-02T16:31:58.204Z,91.22
2023-04-02T16:37:23.279Z,92.09
2023-04-02T16:42:48.506Z,92.20
2023-04-02T16:48:15.191Z,92.97
2023-04-02T16:53:54.509Z,93.16
2023-04-02T16:59:21.562Z,93.28
2023-04-02T17:04:50.345Z,93.59
2023-04-02T17:10:37.971Z,93.85
2023-04-02T17:16:11.991Z,94.05
2023-04-02T17:21:33.496Z,93.99
2023-04-02T17:26:58.054Z,93.91
2023-04-02T17:32:38.061Z,94.09
2023-04-02T17:38:13.900Z,93.98
2023-04-02T17:43:36.733Z,94.13
2023-04-02T17:48:50.084Z,93.90
2023-04-02T17:54:04.042Z,93.66
2023-04-02T17:59:35.243Z,93.69
2023-04-02T18:05:27.992Z,93.19
2023-04-02T18:11:17.452Z,92.52
2023-04-02T18:17:15.938Z,92.14
2023-04-02T18:22:50.042Z,92.32
2023-04-02T18:28:35.572Z,91.77
2023-04-02T18:34:23.180Z,91.54
2023-04-02T18:39:59.336Z,91.46
2023-04-02T18:45:31.473Z,90.28
2023-04-02T18:50:52.940Z,90.44
2023-04-02T18:56:11.441Z,90.64
2023-04-02T19:01:24.861Z,90.81
2023-04-02T19:07:13.952Z,91.00
2023-04-02T19:12:22.707Z,90.66
2023-04-02T19:17:43.709Z,90.68
2023-04-02T19:23:16.932Z,90.49
2023-04-02T19:29:06.201Z,90.40
2023-04-02T19:35:09.498Z,90.31
2023-04-02T19:40:40.885Z,90.09
2023-04-02T19:45:49.703Z,89.27
2023-04-02T19:50:56.144Z,89.70
2023-04-02T19:56:03.314Z,89.02
2023-04-02T20:01:17.212Z,88.71
2023-04-02T20:06:23.520Z,88.75
2023-04-02T20:11:33.841Z,88.54
2023-04-02T20:16:44.506Z,88.57
2023-04-02T20:21:54.884Z,87.34
2023-04-02T20:27:04.997Z,86.34
2023-04-02T20:32:12.020Z,85.33
2023-04-02T20:37:17.477Z,85.14
2023-04-02T20:42:25.795Z,85.22
2023-04-02T20:47:30.572Z,84.54
2023-04-02T20:52:36.128Z,83.73
2023-04-02T20:57:40.498Z,82.75
2023-04-02T21:02:46.297Z,82.73
2023-04-02T21:07:50.650Z,83.09
2023-04-02T21:12:56.119Z,82.61
2023-04-02T21:18:00.271Z,82.85
2023-04-02T21:23:05.136Z,83.45
2023-04-02T21:28:09.982Z,82.66
2023-04-02T21:33:18.719Z,82.79
2023-04-02T21:38:27.432Z,83.04
2023-04-02T21:43:31.357Z,82.35
2023-04-02T21:48:38.968Z,82.32
2023-04-02T21:53:51.155Z,82.47
2023-04-02T21:59:02.218Z,82.62
2023-04-02T22:04:09.961Z,82.57
2023-04-02T22:09:16.565Z,83.10
2023-04-02T22:14:20.607Z,82.84
2023-04-02T22:19:35.742Z,82.46
2023-04-02T22:24:51.543Z,81.82
2023-04-02T22:29:55.890Z,80.92
2023-04-02T22:35:02.185Z,81.16
2023-04-02T22:40:11.190Z,81.79
2023-04-02T22:45:18.896Z,80.81
2023-04-02T22:50:23.258Z,80.72
2023-04-02T22:55:27.467Z,80.99
2023-04-02T23:00:31.274Z,81.58
2023-04-02T23:05:35.197Z,81.24
2023-04-02T23:10:38.945Z,81.56
2023-04-02T23:15:44.954Z,82.13
2023-04-02T23:20:48.756Z,82.37
2023-04-02T23:26:12.610Z,82.27
2023-04-02T23:31:19.425Z,82.42
2023-04-02T23:36:25.587Z,82.68
2023-04-02T23:41:30.257Z,82.94
2023-04-02T23:46:34.517Z,83.31
2023-04-02T23:51:38.344Z,83.58
2023-04-02T23:56:42.512Z,83.67
